Terminal Aerodrome Forecast
Issued by NWS

Home | Current Version | Previous Version | Text Only | Print | Product List | Glossary On
Versions: 1 2 3 4 5 6 7 8 9 10 11 12 13 14 15 16 17 18 19 20 21
000
FTAK31 PAFA 162120 AAA
TAFAOR
TAF AMD
PAOR 162120Z 1621/1718 VRB03KT 1SM -SN BR BKN010 BKN014 OVC020
      TEMPO 1621/1624 4SM -SN BR SCT010 SCT014 OVC020
     FM170000 VRB03KT 6SM -SN BR BKN020 OVC040
     FM170400 30003KT P6SM SCT025 OVC050=

USA.gov is the U.S. government's official web portal to all federal, state and local government web resources and services.